CO29 weather

University Hospital Heliport
Denver, Colorado, United States

Public forecast

Using degrees Fahrenheit for public forecast. Weather courtesy of forecast.io.

METAR (pilot weather report)

Closest report is Buckley Air Force Base, 8.8 nm (16.3 km) ESE. Retrieved 2019/04/25 12:58 UTC (49 minutes ago):

KBKF 251258Z 00000KT 10SM FEW018 BKN050 BKN090 06/03 A3021 RMK AO2A SLP186 T00600033

TAF (pilot weather forecast)

Closest forecast is Buckley Air Force Base, 8.8 nm (16.3 km) ESE. Retrieved 2019/04/25 09:06 UTC (5 hours ago):

TAF KBKF 250900Z 2509/2615 31012G18KT 9999 BKN010 BKN030 OVC050 QNH3007INS TEMPO 2509/2513 36020G35KT SCT010 BKN050 520009 BECMG 2512/2513 31009KT 9999 SCT030 BKN050 QNH3018INS BECMG 2521/2522 VRB06KT 9999 SKC QNH3017INS BECMG 2603/2604 12012G18KT 9999 FEW040 QNH3015INS BECMG 2612/2613 22009KT 9999 SKC QNH3010INS TX21/2522Z TN06/2511Z